sensor_id;sensor_type;location;lat;lon;timestamp;temperature;humidity
12370;DHT22;6249;52.128;9.986;2022-12-10T00:00:10;1.20;99.90
12370;DHT22;6249;52.128;9.986;2022-12-10T00:03:31;1.20;99.90
12370;DHT22;6249;52.128;9.986;2022-12-10T00:06:54;1.30;99.90
12370;DHT22;6249;52.128;9.986;2022-12-10T00:10:19;1.30;99.90
12370;DHT22;6249;52.128;9.986;2022-12-10T00:13:40;1.30;99.90
12370;DHT22;6249;52.128;9.986;2022-12-10T00:17:08;1.40;99.90
12370;DHT22;6249;52.128;9.986;2022-12-10T00:20:29;1.40;99.90
12370;DHT22;6249;52.128;9.986;2022-12-10T00:23:52;1.40;99.90
12370;DHT22;6249;52.128;9.986;2022-12-10T00:27:15;1.40;99.90
12370;DHT22;6249;52.128;9.986;2022-12-10T00:30:38;1.30;99.90
12370;DHT22;6249;52.128;9.986;2022-12-10T00:34:03;2.20;99.90
12370;DHT22;6249;52.128;9.986;2022-12-10T00:37:26;1.30;99.90
12370;DHT22;6249;52.128;9.986;2022-12-10T00:40:47;1.30;99.90
12370;DHT22;6249;52.128;9.986;2022-12-10T00:44:07;1.20;99.90
12370;DHT22;6249;52.128;9.986;2022-12-10T00:47:28;1.20;99.90
12370;DHT22;6249;52.128;9.986;2022-12-10T00:54:19;1.20;99.90
12370;DHT22;6249;52.128;9.986;2022-12-10T00:57:42;1.20;99.90
12370;DHT22;6249;52.128;9.986;2022-12-10T01:04:35;1.20;99.90
12370;DHT22;6249;52.128;9.986;2022-12-10T01:07:58;1.20;99.90
12370;DHT22;6249;52.128;9.986;2022-12-10T01:11:21;1.20;99.90
12370;DHT22;6249;52.128;9.986;2022-12-10T01:14:42;1.20;99.90
12370;DHT22;6249;52.128;9.986;2022-12-10T01:18:07;1.20;99.90
12370;DHT22;6249;52.128;9.986;2022-12-10T01:21:28;1.20;99.90
12370;DHT22;6249;52.128;9.986;2022-12-10T01:24:49;1.10;99.90
12370;DHT22;6249;52.128;9.986;2022-12-10T01:28:10;1.10;99.90
12370;DHT22;6249;52.128;9.986;2022-12-10T01:31:35;1.00;99.90
12370;DHT22;6249;52.128;9.986;2022-12-10T01:34:56;1.00;99.90
12370;DHT22;6249;52.128;9.986;2022-12-10T01:38:17;1.00;99.90
12370;DHT22;6249;52.128;9.986;2022-12-10T01:41:42;1.00;99.90
12370;DHT22;6249;52.128;9.986;2022-12-10T01:45:07;1.00;99.90
12370;DHT22;6249;52.128;9.986;2022-12-10T01:48:31;0.90;99.90
12370;DHT22;6249;52.128;9.986;2022-12-10T01:51:54;1.00;99.90
12370;DHT22;6249;52.128;9.986;2022-12-10T01:55:40;0.90;99.90
12370;DHT22;6249;52.128;9.986;2022-12-10T01:59:05;1.00;99.90
12370;DHT22;6249;52.128;9.986;2022-12-10T02:02:46;1.00;99.90
12370;DHT22;6249;52.128;9.986;2022-12-10T02:09:48;1.00;99.90
12370;DHT22;6249;52.128;9.986;2022-12-10T02:16:40;0.90;99.90
12370;DHT22;6249;52.128;9.986;2022-12-10T02:23:45;1.00;99.90
12370;DHT22;6249;52.128;9.986;2022-12-10T02:27:16;0.90;99.90
12370;DHT22;6249;52.128;9.986;2022-12-10T02:30:41;0.90;99.90
12370;DHT22;6249;52.128;9.986;2022-12-10T02:34:05;1.10;99.90
12370;DHT22;6249;52.128;9.986;2022-12-10T02:37:33;1.20;99.90
12370;DHT22;6249;52.128;9.986;2022-12-10T02:40:58;1.20;99.90
12370;DHT22;6249;52.128;9.986;2022-12-10T02:44:21;1.40;99.90
12370;DHT22;6249;52.128;9.986;2022-12-10T02:47:42;1.40;99.90
12370;DHT22;6249;52.128;9.986;2022-12-10T02:51:06;1.40;99.90
12370;DHT22;6249;52.128;9.986;2022-12-10T02:58:13;1.20;99.90
12370;DHT22;6249;52.128;9.986;2022-12-10T03:08:59;1.10;99.90
12370;DHT22;6249;52.128;9.986;2022-12-10T03:12:39;0.90;99.90
12370;DHT22;6249;52.128;9.986;2022-12-10T03:16:02;1.00;99.90
12370;DHT22;6249;52.128;9.986;2022-12-10T03:22:53;0.80;99.90
12370;DHT22;6249;52.128;9.986;2022-12-10T03:26:17;0.90;99.90
12370;DHT22;6249;52.128;9.986;2022-12-10T03:30:00;1.10;99.90
12370;DHT22;6249;52.128;9.986;2022-12-10T03:33:23;1.00;99.90
12370;DHT22;6249;52.128;9.986;2022-12-10T03:36:46;0.90;99.90
12370;DHT22;6249;52.128;9.986;2022-12-10T03:40:11;0.80;99.90
12370;DHT22;6249;52.128;9.986;2022-12-10T03:43:32;0.80;99.90
12370;DHT22;6249;52.128;9.986;2022-12-10T03:46:53;0.80;99.90
12370;DHT22;6249;52.128;9.986;2022-12-10T03:50:16;0.80;99.90
12370;DHT22;6249;52.128;9.986;2022-12-10T03:53:37;0.80;99.90
12370;DHT22;6249;52.128;9.986;2022-12-10T03:57:00;0.90;99.90
12370;DHT22;6249;52.128;9.986;2022-12-10T04:00:25;0.80;99.90
12370;DHT22;6249;52.128;9.986;2022-12-10T04:03:46;0.90;99.90
12370;DHT22;6249;52.128;9.986;2022-12-10T04:07:06;0.80;99.90
12370;DHT22;6249;52.128;9.986;2022-12-10T04:10:29;0.80;99.90
12370;DHT22;6249;52.128;9.986;2022-12-10T04:13:53;0.70;99.90
12370;DHT22;6249;52.128;9.986;2022-12-10T04:17:33;0.70;99.90
12370;DHT22;6249;52.128;9.986;2022-12-10T04:20:56;0.70;99.90
12370;DHT22;6249;52.128;9.986;2022-12-10T04:24:36;0.70;99.90
12370;DHT22;6249;52.128;9.986;2022-12-10T04:28:16;0.70;99.90
12370;DHT22;6249;52.128;9.986;2022-12-10T04:31:38;0.70;99.90
12370;DHT22;6249;52.128;9.986;2022-12-10T04:35:02;0.60;99.90
12370;DHT22;6249;52.128;9.986;2022-12-10T04:38:25;0.60;99.90
12370;DHT22;6249;52.128;9.986;2022-12-10T04:41:47;0.70;99.90
12370;DHT22;6249;52.128;9.986;2022-12-10T04:45:13;0.70;99.90
12370;DHT22;6249;52.128;9.986;2022-12-10T04:48:33;0.60;99.90
12370;DHT22;6249;52.128;9.986;2022-12-10T04:51:56;0.60;99.90
12370;DHT22;6249;52.128;9.986;2022-12-10T04:55:17;0.60;99.90
12370;DHT22;6249;52.128;9.986;2022-12-10T04:58:39;0.60;99.90
12370;DHT22;6249;52.128;9.986;2022-12-10T05:02:03;0.60;99.90
12370;DHT22;6249;52.128;9.986;2022-12-10T05:05:24;0.60;99.90
12370;DHT22;6249;52.128;9.986;2022-12-10T05:08:45;0.60;99.90
12370;DHT22;6249;52.128;9.986;2022-12-10T05:12:06;0.60;99.90
12370;DHT22;6249;52.128;9.986;2022-12-10T05:15:29;0.60;99.90
12370;DHT22;6249;52.128;9.986;2022-12-10T05:18:50;0.60;99.90
12370;DHT22;6249;52.128;9.986;2022-12-10T05:22:13;0.90;99.90
12370;DHT22;6249;52.128;9.986;2022-12-10T05:29:21;0.90;99.90
12370;DHT22;6249;52.128;9.986;2022-12-10T05:32:41;0.70;99.90
12370;DHT22;6249;52.128;9.986;2022-12-10T05:36:05;0.80;99.90
12370;DHT22;6249;52.128;9.986;2022-12-10T05:39:28;0.70;99.90
12370;DHT22;6249;52.128;9.986;2022-12-10T05:42:48;0.70;99.90
12370;DHT22;6249;52.128;9.986;2022-12-10T05:46:11;0.50;99.90
12370;DHT22;6249;52.128;9.986;2022-12-10T05:49:32;0.50;99.90
12370;DHT22;6249;52.128;9.986;2022-12-10T05:52:53;0.60;99.90
12370;DHT22;6249;52.128;9.986;2022-12-10T05:56:16;0.60;99.90
12370;DHT22;6249;52.128;9.986;2022-12-10T05:59:38;0.70;99.90
12370;DHT22;6249;52.128;9.986;2022-12-10T06:02:59;0.70;99.90
12370;DHT22;6249;52.128;9.986;2022-12-10T06:06:27;0.60;99.90
12370;DHT22;6249;52.128;9.986;2022-12-10T06:09:53;0.60;99.90
12370;DHT22;6249;52.128;9.986;2022-12-10T06:13:15;0.70;99.90
12370;DHT22;6249;52.128;9.986;2022-12-10T06:16:41;0.60;99.90
12370;DHT22;6249;52.128;9.986;2022-12-10T06:20:04;0.70;99.90
12370;DHT22;6249;52.128;9.986;2022-12-10T06:23:25;0.70;99.90
12370;DHT22;6249;52.128;9.986;2022-12-10T06:26:45;0.60;99.90
12370;DHT22;6249;52.128;9.986;2022-12-10T06:30:07;0.50;99.90
12370;DHT22;6249;52.128;9.986;2022-12-10T06:33:27;0.50;99.90
12370;DHT22;6249;52.128;9.986;2022-12-10T06:36:48;0.60;99.90
12370;DHT22;6249;52.128;9.986;2022-12-10T06:40:09;0.60;99.90
12370;DHT22;6249;52.128;9.986;2022-12-10T06:43:30;0.60;99.90
12370;DHT22;6249;52.128;9.986;2022-12-10T06:46:53;0.50;99.90
12370;DHT22;6249;52.128;9.986;2022-12-10T06:50:13;0.40;99.90
12370;DHT22;6249;52.128;9.986;2022-12-10T06:53:35;0.40;99.90
12370;DHT22;6249;52.128;9.986;2022-12-10T06:56:56;0.30;99.90
12370;DHT22;6249;52.128;9.986;2022-12-10T07:00:17;0.30;99.90
12370;DHT22;6249;52.128;9.986;2022-12-10T07:03:40;0.30;99.90
12370;DHT22;6249;52.128;9.986;2022-12-10T07:07:05;0.40;99.90
12370;DHT22;6249;52.128;9.986;2022-12-10T07:10:28;0.40;99.90
12370;DHT22;6249;52.128;9.986;2022-12-10T07:13:49;0.40;99.90
12370;DHT22;6249;52.128;9.986;2022-12-10T07:17:10;0.30;99.90
12370;DHT22;6249;52.128;9.986;2022-12-10T07:20:35;0.40;99.90
12370;DHT22;6249;52.128;9.986;2022-12-10T07:23:57;0.40;99.90
12370;DHT22;6249;52.128;9.986;2022-12-10T07:27:18;0.40;99.90
12370;DHT22;6249;52.128;9.986;2022-12-10T07:30:38;0.40;99.90
12370;DHT22;6249;52.128;9.986;2022-12-10T07:33:59;0.40;99.90
12370;DHT22;6249;52.128;9.986;2022-12-10T07:37:20;0.40;99.90
12370;DHT22;6249;52.128;9.986;2022-12-10T07:40:43;0.40;99.90
12370;DHT22;6249;52.128;9.986;2022-12-10T07:44:05;0.40;99.90
12370;DHT22;6249;52.128;9.986;2022-12-10T07:47:29;0.40;99.90
12370;DHT22;6249;52.128;9.986;2022-12-10T07:50:56;0.40;99.90
12370;DHT22;6249;52.128;9.986;2022-12-10T07:54:18;0.40;99.90
12370;DHT22;6249;52.128;9.986;2022-12-10T07:57:38;0.30;99.90
12370;DHT22;6249;52.128;9.986;2022-12-10T08:00:59;0.30;99.90
12370;DHT22;6249;52.128;9.986;2022-12-10T08:04:28;0.30;99.90
12370;DHT22;6249;52.128;9.986;2022-12-10T08:07:52;0.30;99.90
12370;DHT22;6249;52.128;9.986;2022-12-10T08:11:17;0.30;99.90
12370;DHT22;6249;52.128;9.986;2022-12-10T08:14:37;0.30;99.90
12370;DHT22;6249;52.128;9.986;2022-12-10T08:17:58;0.40;99.90
12370;DHT22;6249;52.128;9.986;2022-12-10T08:21:21;0.50;99.90
12370;DHT22;6249;52.128;9.986;2022-12-10T08:24:42;0.50;99.90
12370;DHT22;6249;52.128;9.986;2022-12-10T08:28:05;0.50;99.90
12370;DHT22;6249;52.128;9.986;2022-12-10T08:31:27;0.50;99.90
12370;DHT22;6249;52.128;9.986;2022-12-10T08:34:50;0.50;99.90
12370;DHT22;6249;52.128;9.986;2022-12-10T08:38:13;0.70;99.90
12370;DHT22;6249;52.128;9.986;2022-12-10T08:41:33;0.60;99.90
12370;DHT22;6249;52.128;9.986;2022-12-10T08:44:57;0.60;99.90
12370;DHT22;6249;52.128;9.986;2022-12-10T08:48:18;0.60;99.90
12370;DHT22;6249;52.128;9.986;2022-12-10T08:51:39;0.60;99.90
12370;DHT22;6249;52.128;9.986;2022-12-10T08:54:59;0.70;99.90
12370;DHT22;6249;52.128;9.986;2022-12-10T08:58:20;0.70;99.90
12370;DHT22;6249;52.128;9.986;2022-12-10T09:01:41;0.70;99.90
12370;DHT22;6249;52.128;9.986;2022-12-10T09:05:04;0.70;99.90
12370;DHT22;6249;52.128;9.986;2022-12-10T09:08:27;0.80;99.90
12370;DHT22;6249;52.128;9.986;2022-12-10T09:11:50;0.80;99.90
12370;DHT22;6249;52.128;9.986;2022-12-10T09:15:11;1.10;99.90
12370;DHT22;6249;52.128;9.986;2022-12-10T09:18:31;1.20;99.90
12370;DHT22;6249;52.128;9.986;2022-12-10T09:21:52;1.20;99.90
12370;DHT22;6249;52.128;9.986;2022-12-10T09:25:12;1.20;99.90
12370;DHT22;6249;52.128;9.986;2022-12-10T09:28:35;1.30;99.90
12370;DHT22;6249;52.128;9.986;2022-12-10T09:31:56;1.30;99.90
12370;DHT22;6249;52.128;9.986;2022-12-10T09:35:17;1.20;99.90
12370;DHT22;6249;52.128;9.986;2022-12-10T09:38:44;1.10;99.90
12370;DHT22;6249;52.128;9.986;2022-12-10T09:49:17;1.30;99.90
12370;DHT22;6249;52.128;9.986;2022-12-10T09:52:46;1.30;99.90
12370;DHT22;6249;52.128;9.986;2022-12-10T09:56:18;1.10;99.90
12370;DHT22;6249;52.128;9.986;2022-12-10T09:59:49;1.10;99.90
12370;DHT22;6249;52.128;9.986;2022-12-10T10:03:14;1.10;99.90
12370;DHT22;6249;52.128;9.986;2022-12-10T10:06:35;1.00;99.90
12370;DHT22;6249;52.128;9.986;2022-12-10T10:10:03;1.00;99.90
12370;DHT22;6249;52.128;9.986;2022-12-10T10:13:42;0.90;99.90
12370;DHT22;6249;52.128;9.986;2022-12-10T10:17:11;0.90;99.90
12370;DHT22;6249;52.128;9.986;2022-12-10T10:20:35;0.90;99.90
12370;DHT22;6249;52.128;9.986;2022-12-10T10:23:56;0.90;99.90
12370;DHT22;6249;52.128;9.986;2022-12-10T10:27:22;0.90;99.90
12370;DHT22;6249;52.128;9.986;2022-12-10T10:30:44;1.00;99.90
12370;DHT22;6249;52.128;9.986;2022-12-10T10:34:18;1.00;99.90
12370;DHT22;6249;52.128;9.986;2022-12-10T10:37:42;0.90;99.90
12370;DHT22;6249;52.128;9.986;2022-12-10T10:41:03;0.90;99.90
12370;DHT22;6249;52.128;9.986;2022-12-10T10:44:36;1.00;99.90
12370;DHT22;6249;52.128;9.986;2022-12-10T10:48:14;1.00;99.90
12370;DHT22;6249;52.128;9.986;2022-12-10T10:51:42;0.90;99.90
12370;DHT22;6249;52.128;9.986;2022-12-10T10:55:04;1.00;99.90
12370;DHT22;6249;52.128;9.986;2022-12-10T10:58:25;1.10;99.90
12370;DHT22;6249;52.128;9.986;2022-12-10T11:01:52;1.20;99.90
12370;DHT22;6249;52.128;9.986;2022-12-10T11:05:29;1.20;99.90
12370;DHT22;6249;52.128;9.986;2022-12-10T11:08:51;1.10;99.90
12370;DHT22;6249;52.128;9.986;2022-12-10T11:12:30;1.10;99.90
12370;DHT22;6249;52.128;9.986;2022-12-10T11:19:31;1.20;99.90
12370;DHT22;6249;52.128;9.986;2022-12-10T11:29:56;1.20;99.90
12370;DHT22;6249;52.128;9.986;2022-12-10T11:33:30;1.10;99.90
12370;DHT22;6249;52.128;9.986;2022-12-10T11:40:41;1.10;99.90
12370;DHT22;6249;52.128;9.986;2022-12-10T11:44:17;1.30;99.90
12370;DHT22;6249;52.128;9.986;2022-12-10T12:17:32;1.20;99.90
12370;DHT22;6249;52.128;9.986;2022-12-10T12:24:32;1.30;99.90
12370;DHT22;6249;52.128;9.986;2022-12-10T12:28:04;1.30;99.90
12370;DHT22;6249;52.128;9.986;2022-12-10T12:31:38;1.10;99.90
12370;DHT22;6249;52.128;9.986;2022-12-10T12:35:04;0.90;99.90
12370;DHT22;6249;52.128;9.986;2022-12-10T12:38:28;0.90;99.90
12370;DHT22;6249;52.128;9.986;2022-12-10T12:42:42;0.90;99.90
12370;DHT22;6249;52.128;9.986;2022-12-10T12:46:16;0.80;99.90
12370;DHT22;6249;52.128;9.986;2022-12-10T12:49:39;0.80;99.90
12370;DHT22;6249;52.128;9.986;2022-12-10T12:53:02;0.90;99.90
12370;DHT22;6249;52.128;9.986;2022-12-10T13:00:18;0.90;99.90
12370;DHT22;6249;52.128;9.986;2022-12-10T13:03:41;0.90;99.90
12370;DHT22;6249;52.128;9.986;2022-12-10T13:14:34;0.90;99.90
12370;DHT22;6249;52.128;9.986;2022-12-10T13:21:31;0.80;99.90
12370;DHT22;6249;52.128;9.986;2022-12-10T13:25:14;0.80;99.90
12370;DHT22;6249;52.128;9.986;2022-12-10T13:32:04;0.80;99.90
12370;DHT22;6249;52.128;9.986;2022-12-10T13:36:03;0.80;99.90
12370;DHT22;6249;52.128;9.986;2022-12-10T13:43:19;0.90;99.90
12370;DHT22;6249;52.128;9.986;2022-12-10T13:47:21;1.00;99.90
12370;DHT22;6249;52.128;9.986;2022-12-10T13:58:12;1.10;99.90
12370;DHT22;6249;52.128;9.986;2022-12-10T14:15:56;1.40;99.90
12370;DHT22;6249;52.128;9.986;2022-12-10T14:19:20;1.20;99.90
12370;DHT22;6249;52.128;9.986;2022-12-10T14:22:51;1.10;99.90
12370;DHT22;6249;52.128;9.986;2022-12-10T14:29:44;0.80;99.90
12370;DHT22;6249;52.128;9.986;2022-12-10T14:33:07;0.70;99.90
12370;DHT22;6249;52.128;9.986;2022-12-10T14:36:33;0.70;99.90
12370;DHT22;6249;52.128;9.986;2022-12-10T14:39:57;0.70;99.90
12370;DHT22;6249;52.128;9.986;2022-12-10T14:43:22;0.60;99.90
12370;DHT22;6249;52.128;9.986;2022-12-10T14:46:47;0.60;99.90
12370;DHT22;6249;52.128;9.986;2022-12-10T14:50:14;0.50;99.90
12370;DHT22;6249;52.128;9.986;2022-12-10T14:53:37;0.50;99.90
12370;DHT22;6249;52.128;9.986;2022-12-10T14:57:03;0.40;99.90
12370;DHT22;6249;52.128;9.986;2022-12-10T15:00:25;0.50;99.90
12370;DHT22;6249;52.128;9.986;2022-12-10T15:03:47;0.40;99.90
12370;DHT22;6249;52.128;9.986;2022-12-10T15:07:14;0.40;99.90
12370;DHT22;6249;52.128;9.986;2022-12-10T15:10:40;0.50;99.90
12370;DHT22;6249;52.128;9.986;2022-12-10T15:14:03;0.50;99.90
12370;DHT22;6249;52.128;9.986;2022-12-10T15:17:42;0.40;99.90
12370;DHT22;6249;52.128;9.986;2022-12-10T15:21:09;0.40;99.90
12370;DHT22;6249;52.128;9.986;2022-12-10T15:24:42;0.40;99.90
12370;DHT22;6249;52.128;9.986;2022-12-10T15:28:02;0.40;99.90
12370;DHT22;6249;52.128;9.986;2022-12-10T15:35:15;0.40;99.90
12370;DHT22;6249;52.128;9.986;2022-12-10T15:38:39;0.30;99.90
12370;DHT22;6249;52.128;9.986;2022-12-10T15:42:07;0.40;99.90
12370;DHT22;6249;52.128;9.986;2022-12-10T15:45:39;0.50;99.90
12370;DHT22;6249;52.128;9.986;2022-12-10T15:49:02;0.30;99.90
12370;DHT22;6249;52.128;9.986;2022-12-10T15:52:26;0.30;99.90
12370;DHT22;6249;52.128;9.986;2022-12-10T15:55:47;0.30;99.90
12370;DHT22;6249;52.128;9.986;2022-12-10T15:59:08;0.30;99.90
12370;DHT22;6249;52.128;9.986;2022-12-10T16:06:00;0.30;99.90
12370;DHT22;6249;52.128;9.986;2022-12-10T16:09:21;0.50;99.90
12370;DHT22;6249;52.128;9.986;2022-12-10T16:12:46;0.60;99.90
12370;DHT22;6249;52.128;9.986;2022-12-10T16:16:09;0.50;99.90
12370;DHT22;6249;52.128;9.986;2022-12-10T16:19:32;0.50;99.90
12370;DHT22;6249;52.128;9.986;2022-12-10T16:23:00;0.40;99.90
12370;DHT22;6249;52.128;9.986;2022-12-10T16:26:23;0.40;99.90
12370;DHT22;6249;52.128;9.986;2022-12-10T16:29:44;0.30;99.90
12370;DHT22;6249;52.128;9.986;2022-12-10T16:33:05;0.40;99.90
12370;DHT22;6249;52.128;9.986;2022-12-10T16:36:25;0.40;99.90
12370;DHT22;6249;52.128;9.986;2022-12-10T16:39:46;0.40;99.90
12370;DHT22;6249;52.128;9.986;2022-12-10T16:43:16;0.30;99.90
12370;DHT22;6249;52.128;9.986;2022-12-10T16:46:37;0.30;99.90
12370;DHT22;6249;52.128;9.986;2022-12-10T16:49:58;1.60;99.90
12370;DHT22;6249;52.128;9.986;2022-12-10T16:53:27;0.30;99.90
12370;DHT22;6249;52.128;9.986;2022-12-10T16:56:48;0.30;99.90
12370;DHT22;6249;52.128;9.986;2022-12-10T17:00:15;1.60;99.90
12370;DHT22;6249;52.128;9.986;2022-12-10T17:03:36;0.30;99.90
12370;DHT22;6249;52.128;9.986;2022-12-10T17:06:57;0.30;99.90
12370;DHT22;6249;52.128;9.986;2022-12-10T17:10:20;0.40;99.90
12370;DHT22;6249;52.128;9.986;2022-12-10T17:14:09;0.60;99.90
12370;DHT22;6249;52.128;9.986;2022-12-10T17:17:32;0.70;99.90
12370;DHT22;6249;52.128;9.986;2022-12-10T17:20:57;0.80;99.90
12370;DHT22;6249;52.128;9.986;2022-12-10T17:24:18;0.80;99.90
12370;DHT22;6249;52.128;9.986;2022-12-10T17:27:40;0.70;99.90
12370;DHT22;6249;52.128;9.986;2022-12-10T17:31:01;0.60;99.90
12370;DHT22;6249;52.128;9.986;2022-12-10T17:34:22;0.70;99.90
12370;DHT22;6249;52.128;9.986;2022-12-10T17:37:44;0.70;99.90
12370;DHT22;6249;52.128;9.986;2022-12-10T17:41:04;0.80;99.90
12370;DHT22;6249;52.128;9.986;2022-12-10T17:44:25;0.90;99.90
12370;DHT22;6249;52.128;9.986;2022-12-10T17:47:46;0.80;99.90
12370;DHT22;6249;52.128;9.986;2022-12-10T17:51:09;0.80;99.90
12370;DHT22;6249;52.128;9.986;2022-12-10T17:54:34;0.70;99.90
12370;DHT22;6249;52.128;9.986;2022-12-10T17:57:57;0.70;99.90
12370;DHT22;6249;52.128;9.986;2022-12-10T18:01:19;0.90;99.90
12370;DHT22;6249;52.128;9.986;2022-12-10T18:04:44;1.00;99.90
12370;DHT22;6249;52.128;9.986;2022-12-10T18:08:05;1.20;99.90
12370;DHT22;6249;52.128;9.986;2022-12-10T18:11:33;1.20;99.90
12370;DHT22;6249;52.128;9.986;2022-12-10T18:14:54;1.00;99.90
12370;DHT22;6249;52.128;9.986;2022-12-10T18:18:17;0.80;99.90
12370;DHT22;6249;52.128;9.986;2022-12-10T18:21:37;0.70;99.90
12370;DHT22;6249;52.128;9.986;2022-12-10T18:25:01;0.60;99.90
12370;DHT22;6249;52.128;9.986;2022-12-10T18:31:43;0.60;99.90
12370;DHT22;6249;52.128;9.986;2022-12-10T18:35:04;0.50;99.90
12370;DHT22;6249;52.128;9.986;2022-12-10T18:38:25;0.50;99.90
12370;DHT22;6249;52.128;9.986;2022-12-10T18:41:46;0.40;99.90
12370;DHT22;6249;52.128;9.986;2022-12-10T18:45:07;0.30;99.90
12370;DHT22;6249;52.128;9.986;2022-12-10T18:48:28;0.30;99.90
12370;DHT22;6249;52.128;9.986;2022-12-10T18:51:51;0.30;99.90
12370;DHT22;6249;52.128;9.986;2022-12-10T18:55:14;0.20;99.90
12370;DHT22;6249;52.128;9.986;2022-12-10T18:58:34;0.10;99.90
12370;DHT22;6249;52.128;9.986;2022-12-10T19:01:55;0.20;99.90
12370;DHT22;6249;52.128;9.986;2022-12-10T19:05:17;0.30;99.90
12370;DHT22;6249;52.128;9.986;2022-12-10T19:08:37;0.30;99.90
12370;DHT22;6249;52.128;9.986;2022-12-10T19:11:58;0.40;99.90
12370;DHT22;6249;52.128;9.986;2022-12-10T19:15:20;0.50;99.90
12370;DHT22;6249;52.128;9.986;2022-12-10T19:18:41;0.70;99.90
12370;DHT22;6249;52.128;9.986;2022-12-10T19:22:04;0.90;99.90
12370;DHT22;6249;52.128;9.986;2022-12-10T19:25:27;0.80;99.90
12370;DHT22;6249;52.128;9.986;2022-12-10T19:28:53;0.70;99.90
12370;DHT22;6249;52.128;9.986;2022-12-10T19:32:14;0.70;99.90
12370;DHT22;6249;52.128;9.986;2022-12-10T19:35:35;0.50;99.90
12370;DHT22;6249;52.128;9.986;2022-12-10T19:38:58;0.60;99.90
12370;DHT22;6249;52.128;9.986;2022-12-10T19:42:18;0.50;99.90
12370;DHT22;6249;52.128;9.986;2022-12-10T19:45:41;0.40;99.90
12370;DHT22;6249;52.128;9.986;2022-12-10T19:49:05;0.30;99.90
12370;DHT22;6249;52.128;9.986;2022-12-10T19:52:25;0.40;99.90
12370;DHT22;6249;52.128;9.986;2022-12-10T19:55:46;0.50;99.90
12370;DHT22;6249;52.128;9.986;2022-12-10T19:59:15;0.50;99.90
12370;DHT22;6249;52.128;9.986;2022-12-10T20:02:36;0.40;99.90
12370;DHT22;6249;52.128;9.986;2022-12-10T20:05:57;0.40;99.90
12370;DHT22;6249;52.128;9.986;2022-12-10T20:09:21;0.50;99.90
12370;DHT22;6249;52.128;9.986;2022-12-10T20:12:42;0.50;99.90
12370;DHT22;6249;52.128;9.986;2022-12-10T20:16:08;0.60;99.90
12370;DHT22;6249;52.128;9.986;2022-12-10T20:19:35;0.60;99.90
12370;DHT22;6249;52.128;9.986;2022-12-10T20:23:00;0.70;99.90
12370;DHT22;6249;52.128;9.986;2022-12-10T20:26:31;0.70;99.90
12370;DHT22;6249;52.128;9.986;2022-12-10T20:29:52;0.60;99.90
12370;DHT22;6249;52.128;9.986;2022-12-10T20:33:13;0.60;99.90
12370;DHT22;6249;52.128;9.986;2022-12-10T20:36:37;0.60;99.90
12370;DHT22;6249;52.128;9.986;2022-12-10T20:39:58;0.60;99.90
12370;DHT22;6249;52.128;9.986;2022-12-10T20:43:19;0.50;99.90
12370;DHT22;6249;52.128;9.986;2022-12-10T20:46:39;0.60;99.90
12370;DHT22;6249;52.128;9.986;2022-12-10T20:50:03;0.60;99.90
12370;DHT22;6249;52.128;9.986;2022-12-10T20:53:28;0.50;99.90
12370;DHT22;6249;52.128;9.986;2022-12-10T20:56:48;0.50;99.90
12370;DHT22;6249;52.128;9.986;2022-12-10T21:00:15;0.50;99.90
12370;DHT22;6249;52.128;9.986;2022-12-10T21:03:37;0.50;99.90
12370;DHT22;6249;52.128;9.986;2022-12-10T21:06:57;0.60;99.90
12370;DHT22;6249;52.128;9.986;2022-12-10T21:10:19;0.60;99.90
12370;DHT22;6249;52.128;9.986;2022-12-10T21:13:58;0.40;99.90
12370;DHT22;6249;52.128;9.986;2022-12-10T21:17:23;0.30;99.90
12370;DHT22;6249;52.128;9.986;2022-12-10T21:20:45;0.20;99.90
12370;DHT22;6249;52.128;9.986;2022-12-10T21:24:08;0.10;99.90
12370;DHT22;6249;52.128;9.986;2022-12-10T21:27:30;0.10;99.90
12370;DHT22;6249;52.128;9.986;2022-12-10T21:30:52;0.10;99.90
12370;DHT22;6249;52.128;9.986;2022-12-10T21:34:13;0.20;99.90
12370;DHT22;6249;52.128;9.986;2022-12-10T21:37:36;0.20;99.90
12370;DHT22;6249;52.128;9.986;2022-12-10T21:40:56;0.20;99.90
12370;DHT22;6249;52.128;9.986;2022-12-10T21:44:21;0.30;99.90
12370;DHT22;6249;52.128;9.986;2022-12-10T21:47:42;0.30;99.90
12370;DHT22;6249;52.128;9.986;2022-12-10T21:51:03;0.20;99.90
12370;DHT22;6249;52.128;9.986;2022-12-10T21:54:25;0.20;99.90
12370;DHT22;6249;52.128;9.986;2022-12-10T21:57:49;0.30;99.90
12370;DHT22;6249;52.128;9.986;2022-12-10T22:01:10;0.30;99.90
12370;DHT22;6249;52.128;9.986;2022-12-10T22:04:35;0.30;99.90
12370;DHT22;6249;52.128;9.986;2022-12-10T22:07:55;0.30;99.90
12370;DHT22;6249;52.128;9.986;2022-12-10T22:11:18;0.30;99.90
12370;DHT22;6249;52.128;9.986;2022-12-10T22:14:40;0.10;99.90
12370;DHT22;6249;52.128;9.986;2022-12-10T22:18:01;0.10;99.90
12370;DHT22;6249;52.128;9.986;2022-12-10T22:21:21;0.10;99.90
12370;DHT22;6249;52.128;9.986;2022-12-10T22:24:44;0.10;99.90
12370;DHT22;6249;52.128;9.986;2022-12-10T22:28:07;0.10;99.90
12370;DHT22;6249;52.128;9.986;2022-12-10T22:31:31;0.10;99.90
12370;DHT22;6249;52.128;9.986;2022-12-10T22:34:51;0.00;99.90
12370;DHT22;6249;52.128;9.986;2022-12-10T22:38:12;0.10;99.90
12370;DHT22;6249;52.128;9.986;2022-12-10T22:41:33;0.10;99.90
12370;DHT22;6249;52.128;9.986;2022-12-10T22:44:58;0.10;99.90
12370;DHT22;6249;52.128;9.986;2022-12-10T22:48:19;0.20;99.90
12370;DHT22;6249;52.128;9.986;2022-12-10T22:51:40;0.20;99.90
12370;DHT22;6249;52.128;9.986;2022-12-10T22:55:00;0.20;99.90
12370;DHT22;6249;52.128;9.986;2022-12-10T22:58:26;0.10;99.90
12370;DHT22;6249;52.128;9.986;2022-12-10T23:01:50;0.00;99.90
12370;DHT22;6249;52.128;9.986;2022-12-10T23:05:10;0.00;99.90
12370;DHT22;6249;52.128;9.986;2022-12-10T23:08:32;0.10;99.90
12370;DHT22;6249;52.128;9.986;2022-12-10T23:11:55;0.20;99.90
12370;DHT22;6249;52.128;9.986;2022-12-10T23:15:38;0.30;99.90
12370;DHT22;6249;52.128;9.986;2022-12-10T23:18:58;0.30;99.90
12370;DHT22;6249;52.128;9.986;2022-12-10T23:22:19;0.30;99.90
12370;DHT22;6249;52.128;9.986;2022-12-10T23:25:41;0.30;99.90
12370;DHT22;6249;52.128;9.986;2022-12-10T23:29:05;0.20;99.90
12370;DHT22;6249;52.128;9.986;2022-12-10T23:32:26;0.20;99.90
12370;DHT22;6249;52.128;9.986;2022-12-10T23:35:47;0.40;99.90
12370;DHT22;6249;52.128;9.986;2022-12-10T23:39:08;0.40;99.90
12370;DHT22;6249;52.128;9.986;2022-12-10T23:42:29;0.30;99.90
12370;DHT22;6249;52.128;9.986;2022-12-10T23:45:50;0.20;99.90
12370;DHT22;6249;52.128;9.986;2022-12-10T23:49:10;0.00;99.90
12370;DHT22;6249;52.128;9.986;2022-12-10T23:52:31;-0.10;99.90
12370;DHT22;6249;52.128;9.986;2022-12-10T23:55:52;0.00;99.90
12370;DHT22;6249;52.128;9.986;2022-12-10T23:59:13;0.10;99.90
